Time;durP1;ratioP1;P1;durP2;ratioP2;P2;SDS_P1;SDS_P2;PMS_P1;PMS_P2;Temp;Humidity;BMP_temperature;BMP_pressure;BME280_temperature;BME280_humidity;BME280_pressure;Samples;Min_cycle;Max_cycle;Signal;HPM_P1;HPM_P2
2022/08/14 00:00:44;;;;;;;14.05;11.45;;;;;;;21.59;77.71;100051.97;6040249;23;97182;-79
2022/08/14 00:03:24;;;;;;;12.52;11.23;;;;;;;21.62;77.37;100049.88;6038928;23;97426;-79
2022/08/14 00:05:50;;;;;;;14.40;11.37;;;;;;;21.53;77.72;100033.78;6064041;23;97451;-79
2022/08/14 00:08:16;;;;;;;12.18;10.98;;;;;;;21.57;77.90;100038.72;6038796;23;101330;-79
2022/08/14 00:10:42;;;;;;;15.40;11.43;;;;;;;21.64;77.54;100031.03;6039706;23;97140;-79
2022/08/14 00:13:08;;;;;;;12.25;10.68;;;;;;;21.67;77.59;100033.44;6063580;23;97393;-78
2022/08/14 00:15:38;;;;;;;12.68;11.48;;;;;;;21.55;77.85;100030.00;6040141;23;97845;-79
2022/08/14 00:18:04;;;;;;;16.38;12.00;;;;;;;21.37;77.67;99995.00;6038240;23;101547;-78
2022/08/14 00:20:32;;;;;;;13.68;11.15;;;;;;;21.61;78.06;100023.28;6015573;23;97001;-78
2022/08/14 00:22:59;;;;;;;13.40;10.95;;;;;;;21.60;77.95;100016.25;6015035;23;96706;-78
2022/08/14 00:25:26;;;;;;;11.73;10.50;;;;;;;21.60;77.56;100001.06;6015823;23;101595;-78
2022/08/14 00:27:51;;;;;;;15.88;11.15;;;;;;;21.56;77.63;100004.16;6037894;23;99508;-79
2022/08/14 00:30:17;;;;;;;12.48;11.18;;;;;;;21.62;77.89;100007.16;6039074;23;96673;-79
2022/08/14 00:32:43;;;;;;;15.43;12.45;;;;;;;21.48;78.04;100000.28;6064876;23;97181;-79
2022/08/14 00:35:09;;;;;;;13.32;12.00;;;;;;;21.60;77.90;100010.91;6015747;23;101235;-79
2022/08/14 00:37:38;;;;;;;12.98;11.48;;;;;;;21.66;77.76;100007.72;6063903;23;97381;-79
2022/08/14 00:40:04;;;;;;;13.48;11.90;;;;;;;21.61;78.25;100004.59;6014850;23;96678;-78
2022/08/14 00:42:30;;;;;;;15.52;11.90;;;;;;;21.64;78.09;100005.19;6064559;23;97294;-79
2022/08/14 00:44:56;;;;;;;13.13;11.80;;;;;;;21.62;77.88;100006.31;6038684;23;97492;-79
2022/08/14 00:47:23;;;;;;;14.23;12.82;;;;;;;21.59;78.26;100003.91;6039999;23;100688;-78
2022/08/14 00:49:52;;;;;;;16.17;13.02;;;;;;;21.57;78.16;99998.66;6039538;23;96686;-79
2022/08/14 00:52:18;;;;;;;13.50;12.10;;;;;;;21.57;78.44;100000.50;6039910;23;97573;-78
2022/08/14 00:54:44;;;;;;;14.57;13.13;;;;;;;21.56;78.36;99997.00;6015366;23;101053;-78
2022/08/14 00:57:09;;;;;;;15.77;14.15;;;;;;;21.53;78.89;99999.09;6038706;23;97905;-79
2022/08/14 00:59:35;;;;;;;15.90;12.60;;;;;;;21.51;78.80;100001.03;6040328;23;97056;-78
2022/08/14 01:02:02;;;;;;;13.75;12.45;;;;;;;21.57;78.61;99992.50;6038435;23;97047;-78
2022/08/14 01:04:30;;;;;;;14.27;12.80;;;;;;;21.61;78.53;99985.91;6039933;23;100909;-78
2022/08/14 01:06:57;;;;;;;13.70;12.38;;;;;;;21.57;78.58;99988.00;6014678;23;100783;-79
2022/08/14 01:09:23;;;;;;;14.95;12.70;;;;;;;21.57;78.81;99995.16;6040344;23;97192;-79
2022/08/14 01:11:52;;;;;;;13.35;11.90;;;;;;;21.63;78.40;99992.81;6064067;23;97221;-79
2022/08/14 01:14:19;;;;;;;15.35;13.32;;;;;;;21.63;78.25;99979.44;6039720;23;101650;-81
2022/08/14 01:16:45;;;;;;;15.25;12.23;;;;;;;21.56;78.30;99970.28;6063809;23;97469;-78
2022/08/14 01:21:56;;;;;;;13.77;12.45;;;;;;;21.52;79.07;99984.84;6042758;23;97121;-81
2022/08/14 01:24:22;;;;;;;13.60;12.27;;;;;;;21.56;78.78;99982.78;6065166;23;97877;-78
2022/08/14 01:26:48;;;;;;;13.60;12.32;;;;;;;21.59;78.38;99987.88;6016341;23;101262;-79
2022/08/14 01:29:14;;;;;;;13.77;12.50;;;;;;;21.56;78.70;99993.47;6040757;23;97081;-79
2022/08/14 01:31:49;;;;;;;14.23;12.73;;;;;;;21.57;78.36;99985.31;6040459;23;100161;-79
2022/08/14 01:34:14;;;;;;;14.48;12.25;;;;;;;21.52;78.44;99971.50;6043035;23;97848;-78
2022/08/14 01:36:40;;;;;;;14.65;12.63;;;;;;;21.60;78.35;99982.38;6064951;23;98254;-79
2022/08/14 01:39:09;;;;;;;14.55;12.90;;;;;;;21.63;78.32;99984.78;6063960;23;96939;-79
2022/08/14 01:41:35;;;;;;;15.32;12.48;;;;;;;21.59;78.65;99982.53;6040861;23;97426;-79
2022/08/14 01:44:07;;;;;;;15.10;11.95;;;;;;;21.46;78.80;99980.03;6064033;23;97673;-78
2022/08/14 01:46:39;;;;;;;12.85;11.65;;;;;;;21.56;78.44;99988.97;6040490;23;97407;-79
2022/08/14 01:49:06;;;;;;;13.45;12.07;;;;;;;21.46;78.62;99970.19;6039762;23;97162;-79
2022/08/14 01:51:32;;;;;;;13.90;12.48;;;;;;;21.60;78.49;99981.53;6041120;23;96974;-79
2022/08/14 01:54:00;;;;;;;13.57;12.18;;;;;;;21.46;78.94;99978.22;6040084;23;97449;-79
2022/08/14 01:56:38;;;;;;;12.73;11.50;;;;;;;21.54;78.46;99968.72;6040488;23;97340;-78
2022/08/14 01:59:18;;;;;;;13.90;12.30;;;;;;;21.57;78.55;99979.13;6017902;23;97103;-79
2022/08/14 02:01:52;;;;;;;14.50;12.40;;;;;;;21.58;78.34;99978.16;6091459;23;96708;-78
2022/08/14 02:04:20;;;;;;;13.02;11.68;;;;;;;21.56;78.32;99966.78;6064964;23;99645;-78
2022/08/14 02:06:47;;;;;;;13.60;11.50;;;;;;;21.54;78.40;99972.22;6064781;23;97740;-78
2022/08/14 02:09:12;;;;;;;13.25;11.95;;;;;;;21.57;78.38;99971.13;6015272;23;97266;-79
2022/08/14 02:11:38;;;;;;;13.02;11.82;;;;;;;21.54;78.40;99974.06;6064998;23;96981;-78
2022/08/14 02:14:06;;;;;;;13.38;11.73;;;;;;;21.59;78.13;99971.84;6040208;23;98093;-78
2022/08/14 02:16:37;;;;;;;12.75;11.55;;;;;;;21.44;78.65;99979.34;6040189;23;101137;-78
2022/08/14 02:19:08;;;;;;;12.88;11.57;;;;;;;21.51;78.25;99969.81;6016467;23;97204;-78
2022/08/14 02:21:35;;;;;;;14.00;11.52;;;;;;;21.47;78.14;99957.72;6040490;23;97199;-79
2022/08/14 02:24:02;;;;;;;12.18;10.82;;;;;;;21.55;77.93;99965.91;6064143;23;97436;-78
2022/08/14 02:26:34;;;;;;;17.75;12.80;;;;;;;21.53;78.14;99961.69;6041075;23;98415;-78
2022/08/14 02:29:06;;;;;;;12.75;11.50;;;;;;;21.51;77.87;99963.66;6015917;23;96647;-78
2022/08/14 02:31:35;;;;;;;13.60;12.18;;;;;;;21.45;78.23;99973.03;6040646;23;97169;-79
2022/08/14 02:34:35;;;;;;;14.32;12.07;;;;;;;21.41;77.86;99958.22;6014741;23;101565;-78
2022/08/14 02:37:04;;;;;;;12.80;11.65;;;;;;;21.42;77.78;99944.75;6039411;23;100676;-79
2022/08/14 02:39:30;;;;;;;12.60;11.30;;;;;;;21.48;77.70;99952.25;6040953;23;97167;-79
2022/08/14 02:41:57;;;;;;;12.32;10.60;;;;;;;21.40;77.91;99949.38;6039999;23;97094;-79
2022/08/14 02:44:23;;;;;;;13.15;11.48;;;;;;;21.33;77.78;99942.84;6040881;23;97402;-79
2022/08/14 02:46:51;;;;;;;13.95;11.55;;;;;;;21.39;78.04;99954.84;6064583;23;97424;-79
2022/08/14 02:49:17;;;;;;;15.82;11.45;;;;;;;21.37;77.75;99951.47;6040443;23;96579;-79
2022/08/14 02:51:46;;;;;;;11.68;10.63;;;;;;;21.33;77.75;99955.34;6040896;23;97096;-79
2022/08/14 02:54:12;;;;;;;13.07;11.35;;;;;;;21.27;77.74;99953.19;6064071;23;97944;-79
2022/08/14 02:56:38;;;;;;;13.13;11.32;;;;;;;21.28;77.82;99950.38;6040225;23;97468;-79
2022/08/14 02:59:05;;;;;;;12.32;10.57;;;;;;;21.27;77.85;99958.53;6015432;23;96753;-79
2022/08/14 03:01:32;;;;;;;12.48;10.13;;;;;;;21.30;77.78;99955.59;6040709;23;96927;-79
2022/08/14 03:03:58;;;;;;;16.73;11.55;;;;;;;21.21;77.69;99947.41;6039703;23;97722;-78
2022/08/14 03:06:24;;;;;;;14.48;11.02;;;;;;;21.11;77.78;99929.59;6040453;23;97325;-78
2022/08/14 03:08:52;;;;;;;14.98;10.80;;;;;;;21.22;77.60;99945.56;6039860;23;97210;-79
2022/08/14 03:11:18;;;;;;;12.77;11.48;;;;;;;21.14;77.91;99946.19;6040383;23;97443;-78
2022/08/14 03:13:50;;;;;;;11.77;10.60;;;;;;;21.07;77.99;99946.88;6063836;23;102170;-79
2022/08/14 03:16:21;;;;;;;11.48;10.38;;;;;;;21.09;77.70;99937.75;6039988;23;101126;-79
2022/08/14 03:18:49;;;;;;;12.32;11.07;;;;;;;21.17;77.67;99943.28;6064907;23;97116;-79
2022/08/14 03:21:19;;;;;;;12.65;11.40;;;;;;;21.07;77.57;99934.38;6040326;23;96736;-79
2022/08/14 03:23:47;;;;;;;11.80;10.53;;;;;;;21.17;77.45;99940.59;6039370;23;101108;-79
2022/08/14 03:26:18;;;;;;;15.05;11.18;;;;;;;21.20;76.95;99948.34;6039641;23;101712;-78
2022/08/14 03:28:46;;;;;;;16.60;11.57;;;;;;;21.12;77.16;99941.97;6015783;23;97205;-79
2022/08/14 03:31:12;;;;;;;12.10;10.90;;;;;;;21.05;77.49;99932.78;6015172;23;97223;-78
2022/08/14 03:33:39;;;;;;;16.10;10.48;;;;;;;21.03;77.71;99940.91;6039921;23;101380;-81
2022/08/14 03:36:13;;;;;;;12.88;11.30;;;;;;;21.05;77.42;99932.78;6039995;23;97824;-78
2022/08/14 03:38:41;;;;;;;14.32;11.00;;;;;;;21.00;77.50;99931.38;6040055;23;96934;-79
2022/08/14 03:41:13;;;;;;;12.02;10.80;;;;;;;20.95;77.43;99924.72;6040787;23;96916;-79
2022/08/14 03:43:50;;;;;;;12.45;10.68;;;;;;;20.99;77.43;99934.16;6040223;23;97914;-79
2022/08/14 03:46:17;;;;;;;12.82;11.48;;;;;;;20.99;77.54;99929.66;6064107;23;98247;-79
2022/08/14 03:48:44;;;;;;;13.13;11.30;;;;;;;21.07;77.16;99923.69;6039398;23;97106;-79
2022/08/14 03:51:12;;;;;;;12.13;10.93;;;;;;;21.13;77.06;99927.66;6040457;23;96784;-79
2022/08/14 03:53:43;;;;;;;12.82;11.35;;;;;;;20.99;77.01;99915.47;6015730;23;100777;-79
2022/08/14 03:56:12;;;;;;;13.48;10.73;;;;;;;21.09;76.80;99928.88;6015551;23;101495;-79
2022/08/14 03:58:48;;;;;;;15.48;11.93;;;;;;;21.01;76.89;99909.03;6040776;23;97120;-79
2022/08/14 04:01:18;;;;;;;14.40;12.45;;;;;;;21.06;77.14;99918.47;6040219;23;96972;-79
2022/08/14 04:03:44;;;;;;;14.38;12.05;;;;;;;20.78;77.77;99897.63;6015429;23;100199;-79
2022/08/14 04:06:10;;;;;;;16.23;12.32;;;;;;;21.00;77.33;99927.84;6040188;23;101125;-79
2022/08/14 04:08:39;;;;;;;15.65;12.32;;;;;;;20.98;77.22;99914.63;6089710;23;96977;-78
2022/08/14 04:11:06;;;;;;;13.45;12.05;;;;;;;21.02;77.11;99915.22;6064265;23;97056;-79
2022/08/14 04:13:34;;;;;;;13.55;11.90;;;;;;;20.98;76.99;99911.97;6014741;23;100546;-78
2022/08/14 04:16:01;;;;;;;12.60;11.35;;;;;;;21.07;76.56;99917.50;6039920;23;98087;-78
2022/08/14 04:18:27;;;;;;;13.30;11.90;;;;;;;21.02;76.63;99905.38;6040180;23;96653;-78
2022/08/14 04:20:52;;;;;;;13.93;12.50;;;;;;;21.06;76.53;99911.34;6039590;23;97103;-79
2022/08/14 04:23:17;;;;;;;16.38;12.20;;;;;;;21.03;76.62;99911.56;6039265;23;97526;-79
2022/08/14 04:25:43;;;;;;;16.08;12.02;;;;;;;21.07;76.33;99915.69;6040114;23;101121;-78
2022/08/14 04:28:10;;;;;;;12.90;11.60;;;;;;;21.06;76.44;99923.81;6014076;23;97590;-78
2022/08/14 04:30:38;;;;;;;15.10;12.30;;;;;;;21.10;76.41;99923.44;6025643;23;96901;-79
2022/08/14 04:33:08;;;;;;;13.38;11.82;;;;;;;21.11;76.62;99916.28;6010021;23;101351;-78
2022/08/14 04:35:35;;;;;;;13.93;12.43;;;;;;;21.14;76.50;99924.84;5988434;23;96725;-78
2022/08/14 04:43:37;;;;;;;14.45;11.68;;;;;;;21.11;76.05;99924.28;6013349;23;101532;-78
2022/08/14 04:46:14;;;;;;;12.70;11.40;;;;;;;21.07;76.39;99915.69;6010393;23;98457;-79
2022/08/14 04:48:40;;;;;;;14.18;12.80;;;;;;;21.15;76.26;99915.91;6009994;23;96656;-79
2022/08/14 04:51:07;;;;;;;14.15;12.73;;;;;;;21.15;76.35;99913.22;6010477;23;96987;-78
2022/08/14 04:53:35;;;;;;;13.52;12.32;;;;;;;21.11;76.25;99906.44;6009731;23;101747;-78
2022/08/14 04:56:01;;;;;;;14.15;12.65;;;;;;;21.27;75.94;99918.50;6035660;23;97378;-78
2022/08/14 04:58:29;;;;;;;15.93;14.32;;;;;;;21.16;76.06;99898.88;5985779;23;96694;-79
2022/08/14 05:00:56;;;;;;;18.52;16.60;;;;;;;21.22;76.07;99895.69;5986501;23;97110;-79
2022/08/14 05:03:30;;;;;;;17.02;14.73;;;;;;;21.23;75.92;99899.22;6009013;23;97457;-78
2022/08/14 05:06:01;;;;;;;14.68;13.27;;;;;;;21.32;75.97;99909.13;6011385;23;97411;-79
2022/08/14 05:08:28;;;;;;;16.35;14.63;;;;;;;21.34;75.94;99900.97;6010093;23;96688;-79
2022/08/14 05:10:57;;;;;;;15.77;14.32;;;;;;;21.41;76.09;99905.69;5986968;23;96917;-79
2022/08/14 05:13:25;;;;;;;18.33;16.52;;;;;;;21.45;75.91;99900.94;6009979;23;98251;-79
2022/08/14 05:15:52;;;;;;;17.98;16.35;;;;;;;21.50;75.80;99903.19;6035108;23;97788;-79
2022/08/14 05:18:22;;;;;;;18.17;16.38;;;;;;;21.56;75.44;99900.84;6009748;23;97057;-79
2022/08/14 05:20:53;;;;;;;19.08;17.17;;;;;;;21.56;76.02;99908.03;6010725;23;96936;-78
2022/08/14 05:23:22;;;;;;;19.13;17.25;;;;;;;21.51;76.15;99907.56;6009078;23;101478;-81
2022/08/14 05:25:50;;;;;;;18.75;16.80;;;;;;;21.53;75.93;99882.44;5987029;23;101168;-78
2022/08/14 05:28:24;;;;;;;17.95;16.15;;;;;;;21.57;75.70;99877.66;6009609;23;96659;-79
2022/08/14 05:31:05;;;;;;;18.27;16.38;;;;;;;21.64;75.72;99887.69;6027352;23;96694;-79
2022/08/14 05:33:33;;;;;;;17.67;15.95;;;;;;;21.72;75.61;99891.50;6039165;23;97602;-79
2022/08/14 05:36:00;;;;;;;19.05;15.60;;;;;;;21.77;75.60;99895.47;6063747;23;97846;-79
2022/08/14 05:38:28;;;;;;;16.42;14.82;;;;;;;;;;6014174;23;96995;-78
2022/08/14 05:40:55;;;;;;;16.13;14.63;;;;;;;21.73;75.86;99891.38;6064103;23;96881;-79
2022/08/14 05:43:21;;;;;;;18.45;16.20;;;;;;;21.79;76.08;99903.34;6013865;23;100667;-78
2022/08/14 05:45:47;;;;;;;22.08;19.77;;;;;;;21.86;75.90;99902.66;6039982;23;101693;-79
2022/08/14 05:48:14;;;;;;;18.98;16.98;;;;;;;21.92;76.01;99901.28;6038590;23;97071;-79
2022/08/14 05:50:40;;;;;;;21.75;19.70;;;;;;;21.93;75.65;99900.28;6015243;23;97102;-79
2022/08/14 05:53:07;;;;;;;22.05;18.73;;;;;;;21.85;75.65;99876.09;6037797;23;97266;-80
2022/08/14 05:55:32;;;;;;;21.85;19.70;;;;;;;21.86;75.84;99869.78;6014755;23;101111;-79
2022/08/14 05:58:03;;;;;;;22.80;20.58;;;;;;;21.85;76.01;99876.09;6039055;23;96903;-79
2022/08/14 06:00:40;;;;;;;20.42;18.52;;;;;;;21.72;76.40;99873.66;6039012;23;96709;-78
2022/08/14 06:03:08;;;;;;;22.27;20.08;;;;;;;21.82;76.66;99895.06;6038347;23;97595;-79
2022/08/14 06:05:35;;;;;;;22.38;20.15;;;;;;;21.71;76.59;99874.63;6039262;23;97702;-79
2022/08/14 06:08:01;;;;;;;19.88;18.00;;;;;;;21.89;76.19;99889.03;6037329;23;97231;-80
2022/08/14 06:10:28;;;;;;;19.15;17.35;;;;;;;21.89;76.29;99885.53;6014938;23;96857;-81
2022/08/14 06:12:55;;;;;;;22.90;20.77;;;;;;;21.97;75.94;99877.69;6013594;23;100973;-81
2022/08/14 06:15:20;;;;;;;20.55;18.55;;;;;;;23.43;71.27;99865.19;6038350;23;97260;-80
2022/08/14 06:17:48;;;;;;;21.50;19.30;;;;;;;24.54;68.12;99860.72;6062816;23;97322;-79
2022/08/14 06:20:14;;;;;;;25.65;23.23;;;;;;;24.26;68.64;99859.91;6062559;23;96770;-79
2022/08/14 06:22:41;;;;;;;23.38;21.27;;;;;;;23.79;69.97;99851.13;6037903;23;100733;-79
2022/08/14 06:25:07;;;;;;;24.27;21.98;;;;;;;23.53;70.98;99857.13;6037624;23;101022;-80
2022/08/14 06:27:41;;;;;;;23.20;21.08;;;;;;;23.35;71.38;99872.28;6013969;23;97149;-80
2022/08/14 06:30:09;;;;;;;20.50;18.65;;;;;;;23.19;71.75;99863.03;6024481;23;97347;-79
2022/08/14 06:32:35;;;;;;;20.50;18.30;;;;;;;23.05;72.21;99860.78;6032094;23;98503;-79
2022/08/14 06:35:03;;;;;;;28.02;25.63;;;;;;;23.03;72.85;99860.91;6009309;23;100825;-80
2022/08/14 06:37:39;;;;;;;28.05;25.45;;;;;;;22.99;72.79;99856.84;6008747;23;96674;-80
2022/08/14 06:40:07;;;;;;;24.60;22.13;;;;;;;22.94;72.85;99866.25;6031435;23;97127;-79
2022/08/14 06:42:32;;;;;;;21.67;19.50;;;;;;;22.85;73.15;99862.59;5983880;23;101651;-80
2022/08/14 06:45:00;;;;;;;19.27;17.30;;;;;;;22.81;73.39;99861.22;6059428;23;97889;-80
2022/08/14 06:47:25;;;;;;;15.15;13.75;;;;;;;22.79;73.05;99845.28;5985925;23;98404;-80
2022/08/14 06:49:51;;;;;;;16.42;13.20;;;;;;;22.82;73.10;99860.22;5985987;23;96788;-79
2022/08/14 06:52:16;;;;;;;14.50;13.25;;;;;;;22.71;73.29;99846.97;6009785;23;100768;-79
2022/08/14 06:54:42;;;;;;;16.67;15.13;;;;;;;22.68;73.38;99840.09;6010212;23;101249;-79
2022/08/14 06:57:07;;;;;;;18.15;16.35;;;;;;;22.68;73.99;99849.94;6031109;23;97177;-82
2022/08/14 06:59:33;;;;;;;22.48;20.23;;;;;;;22.64;73.88;99849.38;6030850;23;97493;-81
2022/08/14 07:07:35;;;;;;;20.98;19.08;;;;;;;22.51;74.47;99843.47;6057182;23;96726;-80
2022/08/14 07:10:03;;;;;;;25.65;23.25;;;;;;;22.51;75.08;99851.47;6032916;23;96948;-80
2022/08/14 07:12:29;;;;;;;22.70;20.55;;;;;;;22.48;74.92;99841.91;6008227;23;101397;-80
2022/08/14 07:14:54;;;;;;;24.23;21.80;;;;;;;22.61;74.65;99849.69;6032680;23;97862;-80
2022/08/14 07:17:19;;;;;;;23.88;20.92;;;;;;;22.52;74.70;99839.81;6058005;23;96908;-81
2022/08/14 07:19:45;;;;;;;22.77;20.65;;;;;;;22.68;74.42;99853.47;5983937;23;96802;-81
2022/08/14 07:22:10;;;;;;;26.55;23.92;;;;;;;22.68;74.81;99860.66;6031488;23;97145;-80
2022/08/14 07:24:36;;;;;;;22.00;19.90;;;;;;;22.66;74.56;99858.13;6009243;23;101109;-81
2022/08/14 07:27:01;;;;;;;21.63;19.40;;;;;;;22.71;74.88;99855.84;5985240;23;97372;-81
2022/08/14 07:29:27;;;;;;;18.25;16.45;;;;;;;22.72;74.21;99846.84;6008426;23;97350;-81
2022/08/14 07:31:52;;;;;;;17.83;16.23;;;;;;;22.77;73.81;99830.38;6012507;23;101995;-80
2022/08/14 07:34:18;;;;;;;19.35;17.35;;;;;;;22.80;74.04;99846.97;6036792;23;101012;-81
2022/08/14 07:36:43;;;;;;;18.45;16.73;;;;;;;22.81;73.73;99842.50;6062575;23;97261;-81
2022/08/14 07:39:09;;;;;;;24.52;22.25;;;;;;;22.89;73.70;99845.28;6037276;23;97013;-82
2022/08/14 07:41:34;;;;;;;18.42;16.52;;;;;;;22.81;73.39;99842.50;6013867;23;101346;-82
2022/08/14 07:44:00;;;;;;;21.98;19.92;;;;;;;22.81;73.24;99831.78;6037550;23;100958;-82
2022/08/14 07:46:26;;;;;;;16.20;14.57;;;;;;;22.82;73.28;99836.97;6037155;23;96736;-81
2022/08/14 07:48:51;;;;;;;19.83;17.92;;;;;;;22.89;73.43;99839.06;6037747;23;96931;-81
2022/08/14 07:51:18;;;;;;;21.40;19.40;;;;;;;22.94;73.66;99839.50;6037290;23;101958;-81
2022/08/14 07:53:44;;;;;;;20.48;18.35;;;;;;;22.98;73.58;99832.91;6037912;23;100792;-80
2022/08/14 07:56:10;;;;;;;25.25;23.15;;;;;;;23.06;73.27;99833.03;6037308;23;96758;-82
2022/08/14 07:58:37;;;;;;;26.65;24.02;;;;;;;23.12;72.43;99831.59;6034587;23;97687;-80
2022/08/14 08:01:03;;;;;;;21.42;19.33;;;;;;;23.28;71.69;99829.19;6037498;23;101608;-81
2022/08/14 08:03:31;;;;;;;18.42;16.58;;;;;;;23.47;71.29;99817.53;6035964;23;100526;-80
2022/08/14 08:05:57;;;;;;;15.95;13.27;;;;;;;23.48;70.74;99821.94;6013261;23;97120;-80
2022/08/14 08:08:23;;;;;;;16.08;14.35;;;;;;;23.46;70.25;99823.91;6059693;23;97042;-81
2022/08/14 08:10:51;;;;;;;18.73;16.88;;;;;;;23.38;70.35;99803.19;6037302;23;101176;-81
2022/08/14 08:13:20;;;;;;;22.02;20.13;;;;;;;23.56;70.62;99826.53;6013456;23;100277;-82
2022/08/14 08:15:55;;;;;;;18.90;16.40;;;;;;;23.61;70.53;99816.22;6062206;23;97111;-81
2022/08/14 08:18:21;;;;;;;17.85;16.15;;;;;;;23.81;70.25;99825.88;6012819;23;96737;-82
2022/08/14 08:20:49;;;;;;;14.10;12.55;;;;;;;24.21;68.74;99813.94;6036104;23;101161;-81
2022/08/14 08:23:17;;;;;;;15.07;13.57;;;;;;;24.89;66.50;99809.84;6033526;23;101112;-82
2022/08/14 08:25:46;;;;;;;14.30;13.07;;;;;;;25.83;64.03;99822.50;6038803;23;96785;-82
2022/08/14 08:28:16;;;;;;;14.07;12.68;;;;;;;26.48;62.68;99817.28;6038093;23;97194;-82
2022/08/14 08:30:53;;;;;;;10.30;9.25;;;;;;;26.29;61.46;99799.56;6039242;23;97732;-81
2022/08/14 08:33:20;;;;;;;11.70;10.50;;;;;;;26.25;62.01;99802.78;6015607;23;101124;-80
2022/08/14 08:35:47;;;;;;;9.88;8.88;;;;;;;26.31;61.52;99804.81;6041147;23;96837;-80
2022/08/14 08:38:16;;;;;;;9.75;8.43;;;;;;;26.47;61.32;99802.16;6015434;23;97139;-81
2022/08/14 08:40:45;;;;;;;9.15;8.35;;;;;;;26.44;60.95;99802.44;6040076;23;101252;-81
2022/08/14 08:43:21;;;;;;;9.63;8.60;;;;;;;26.07;61.17;99795.69;6063422;23;97787;-81
2022/08/14 08:46:13;;;;;;;11.90;9.25;;;;;;;26.19;61.63;99804.28;6039241;23;97059;-80
2022/08/14 08:48:46;;;;;;;11.43;8.35;;;;;;;26.28;60.76;99789.00;6015559;23;97408;-88
2022/08/14 08:51:39;;;;;;;18.13;9.25;;;;;;;28.35;56.62;99790.81;6039221;23;101929;-79
2022/08/14 08:54:06;;;;;;;11.23;9.57;;;;;;;29.20;55.33;99794.31;6038633;23;101419;-77
2022/08/14 08:56:48;;;;;;;9.93;9.00;;;;;;;28.87;54.66;99789.22;6063605;23;96719;-79
2022/08/14 08:59:20;;;;;;;9.50;7.88;;;;;;;30.22;50.73;99784.44;6014591;23;97100;-77
2022/08/14 09:01:51;;;;;;;7.80;7.03;;;;;;;29.18;52.55;99781.00;6015340;23;101085;-78
2022/08/14 09:04:17;;;;;;;9.40;7.53;;;;;;;28.19;54.59;99772.06;6014933;23;101415;-82
2022/08/14 09:06:45;;;;;;;10.77;7.45;;;;;;;27.52;56.20;99770.69;6040520;23;96702;-80
2022/08/14 09:09:22;;;;;;;9.70;7.93;;;;;;;27.15;57.17;99771.34;6036919;23;97244;-81
2022/08/14 09:11:48;;;;;;;12.25;7.57;;;;;;;26.87;57.76;99754.69;6036697;23;101192;-81
2022/08/14 09:14:14;;;;;;;8.80;7.88;;;;;;;26.77;58.60;99765.66;6033223;23;97587;-82
2022/08/14 09:16:40;;;;;;;8.80;7.93;;;;;;;26.78;59.39;99772.72;6011152;23;96702;-84
2022/08/14 09:19:06;;;;;;;11.25;8.02;;;;;;;26.62;60.17;99764.66;6060186;23;97878;-84
2022/08/14 09:21:33;;;;;;;9.68;8.23;;;;;;;26.47;60.93;99760.91;6034266;23;100156;-83
2022/08/14 09:23:59;;;;;;;9.20;7.90;;;;;;;26.17;61.53;99744.44;6036182;23;97815;-83
2022/08/14 09:26:25;;;;;;;10.07;8.57;;;;;;;26.20;61.99;99766.44;6033921;23;96717;-84
2022/08/14 09:28:50;;;;;;;13.80;10.10;;;;;;;26.03;63.20;99769.28;6012253;23;96849;-84
2022/08/14 09:31:16;;;;;;;11.05;9.90;;;;;;;25.85;63.79;99762.19;6010978;23;100233;-83
2022/08/14 09:34:11;;;;;;;12.23;8.98;;;;;;;25.95;63.91;99754.84;6034973;23;101498;-83
2022/08/14 09:36:52;;;;;;;11.48;9.52;;;;;;;25.76;64.78;99741.66;6008325;23;96813;-83
2022/08/14 09:40:00;;;;;;;10.73;9.70;;;;;;;26.12;63.86;99746.78;6034313;23;97206;-83
2022/08/14 09:42:37;;;;;;;10.00;9.13;;;;;;;26.14;64.20;99745.59;6055883;23;102155;-83
2022/08/14 09:45:11;;;;;;;10.48;9.48;;;;;;;26.40;64.14;99748.13;6060505;23;100102;-82
2022/08/14 09:47:40;;;;;;;10.93;9.77;;;;;;;26.34;64.56;99743.44;6037341;23;96796;-85
2022/08/14 09:50:20;;;;;;;12.27;10.73;;;;;;;26.22;64.69;99752.84;6063145;23;96879;-82
2022/08/14 09:52:51;;;;;;;12.55;10.18;;;;;;;26.13;64.89;99735.03;6013853;23;102095;-83
2022/08/14 09:55:20;;;;;;;;;;;;;;;26.04;65.54;99738.72;6038041;23;99836;-85
2022/08/14 09:57:46;;;;;;;12.75;11.55;;;;;;;26.16;65.58;99732.00;6061156;23;97238;-85
2022/08/14 10:00:13;;;;;;;11.73;9.95;;;;;;;26.10;65.13;99728.13;6036528;23;97130;-85
2022/08/14 10:02:39;;;;;;;10.25;9.23;;;;;;;25.97;63.52;99723.22;6035894;23;101576;-84
2022/08/14 10:05:09;;;;;;;11.60;8.65;;;;;;;25.97;63.29;99712.47;6037048;23;101473;-86
2022/08/14 10:07:55;;;;;;;9.20;8.30;;;;;;;25.94;63.67;99722.72;6012452;23;97067;-85
2022/08/14 10:10:28;;;;;;;10.57;9.48;;;;;;;25.86;64.30;99720.88;6011589;23;97448;-85
2022/08/14 10:12:54;;;;;;;9.63;8.63;;;;;;;25.80;64.49;99732.22;6060395;23;99536;-84
2022/08/14 10:15:23;;;;;;;8.98;8.18;;;;;;;25.74;64.67;99725.69;6010603;23;101501;-84
2022/08/14 10:17:50;;;;;;;8.95;8.07;;;;;;;25.67;64.55;99726.50;6036950;23;96679;-85
2022/08/14 10:20:21;;;;;;;13.00;8.88;;;;;;;25.63;64.96;99741.28;6036997;23;96871;-84
2022/08/14 10:22:48;;;;;;;10.63;8.77;;;;;;;25.66;64.53;99732.91;6037247;23;101471;-84
2022/08/14 10:25:16;;;;;;;13.02;9.13;;;;;;;25.79;64.42;99735.09;6038603;23;97755;-85
2022/08/14 10:27:45;;;;;;;10.02;8.98;;;;;;;25.85;63.79;99723.72;6037441;23;97132;-84
2022/08/14 10:30:15;;;;;;;10.98;9.38;;;;;;;25.79;64.10;99729.72;6029970;23;98704;-83
2022/08/14 10:32:45;;;;;;;9.20;8.30;;;;;;;25.90;63.96;99740.19;6010045;23;97408;-84
2022/08/14 10:35:12;;;;;;;10.00;8.13;;;;;;;26.26;63.02;99745.28;6009055;23;101173;-84
2022/08/14 10:37:45;;;;;;;9.15;7.95;;;;;;;26.46;61.81;99743.94;6009779;23;96706;-85
2022/08/14 10:40:12;;;;;;;8.85;7.97;;;;;;;26.57;62.03;99743.63;5984011;23;97311;-85
2022/08/14 10:42:42;;;;;;;9.57;7.63;;;;;;;26.79;61.00;99728.66;6009496;23;100031;-88
2022/08/14 10:45:23;;;;;;;9.07;7.85;;;;;;;26.84;60.36;99712.78;6000869;23;99905;-83
2022/08/14 10:47:50;;;;;;;8.70;7.57;;;;;;;27.03;60.77;99716.97;6009030;23;97200;-86
2022/08/14 10:50:16;;;;;;;8.30;7.50;;;;;;;26.91;60.54;99714.78;6009971;23;97320;-86
2022/08/14 10:52:42;;;;;;;11.07;7.65;;;;;;;26.89;60.08;99696.13;6009333;23;99445;-87
2022/08/14 10:55:18;;;;;;;8.45;7.55;;;;;;;27.10;59.82;99711.72;5985932;23;98744;-87
2022/08/14 10:57:52;;;;;;;7.35;6.68;;;;;;;27.05;59.77;99709.56;6034277;23;97194;-88
2022/08/14 11:00:27;;;;;;;12.68;8.20;;;;;;;26.87;60.13;99696.28;6009565;23;97373;-87
2022/08/14 11:02:59;;;;;;;9.15;8.18;;;;;;;27.02;60.53;99709.91;6011710;23;98384;-87
2022/08/14 11:05:26;;;;;;;19.02;8.35;;;;;;;27.20;60.61;99709.72;6009727;23;97584;-91
2022/08/14 11:07:54;;;;;;;8.43;7.28;;;;;;;27.34;59.94;99708.09;6034338;23;96709;-88
2022/08/14 11:10:22;;;;;;;11.80;8.15;;;;;;;27.36;59.90;99706.09;6009713;23;97569;-89
2022/08/14 11:12:49;;;;;;;8.43;7.53;;;;;;;27.54;59.39;99698.56;6008611;23;100671;-85
2022/08/14 11:15:23;;;;;;;10.02;9.00;;;;;;;27.34;60.04;99694.63;6008601;23;99944;-87
2022/08/14 11:17:50;;;;;;;9.80;7.85;;;;;;;27.20;60.75;99693.53;6034146;23;97135;-90
2022/08/14 11:20:17;;;;;;;9.50;7.63;;;;;;;27.24;60.71;99704.81;6009738;23;97082;-83
2022/08/14 11:22:44;;;;;;;10.52;7.18;;;;;;;27.03;60.75;99708.06;6008031;23;101281;-82
2022/08/14 11:25:12;;;;;;;8.60;7.80;;;;;;;26.72;61.09;99689.09;5985001;23;101460;-82
2022/08/14 11:27:41;;;;;;;8.07;7.28;;;;;;;26.69;61.57;99713.69;6007895;23;97127;-78
2022/08/14 11:30:10;;;;;;;8.52;7.32;;;;;;;26.50;61.91;99715.72;6044368;23;97186;-80
2022/08/14 11:32:38;;;;;;;12.18;7.85;;;;;;;26.12;62.92;99704.63;6011945;23;97917;-84
2022/08/14 11:35:04;;;;;;;9.18;7.57;;;;;;;25.78;63.84;99709.25;6010059;23;101389;-81
2022/08/14 11:37:32;;;;;;;8.32;7.47;;;;;;;25.44;65.02;99723.56;6034058;23;96620;-79
2022/08/14 11:39:59;;;;;;;11.25;8.30;;;;;;;25.02;65.89;99719.84;6010968;23;97258;-79